Boulder City, Nevada Weather observations

Data are for observation ending at time listed.
 Day   Time    Ave.   Ave.  Ave.  Vector   Max.   Stn.    Total    Solar   Ave.  
  of    of     Air    Rel.  Wind   Wind    Wind   Baro.  Precip.   Rad.    Soil  
Year   Day     Temp.  Hum.  Speed  Dir.    Gust   Pres.                    Temp. 
2020   (PST)    F      %     mph   deg.    mph     mb.     in.     W/m2     F   
------------------------------------------------------------------------------
 335   10:40   59.1    21    3.0    49      8.0   940.6    0.00     566    49.5
 335   10:50   59.3    22    3.1    33      7.1   940.5    0.00     567    49.8
 335   11:00   59.2    22    3.4    34      7.5   940.3    0.00     568    50.1
 335   11:10   58.7    24    3.4    42      8.6   940.1    0.00     572    50.3
 335   11:20   58.7    24    3.6    44      7.8   939.8    0.00     574    50.7
 335   11:30   58.9    24    3.5    26      6.9   939.7    0.00     574    51.1
 335   11:40   59.8    24    3.2    32      6.7   939.6    0.00     574    51.6
 335   11:50   59.9    24    3.6    32      6.7   939.4    0.00     570    52.2
 335   12:00   60.0    23    3.6    47      8.2   939.3    0.00     565    52.9
 335   12:10   59.9    22    3.0    48      7.4   939.2    0.00     558    53.6
 335   12:20   60.7    20    3.1    30      7.5   939.0    0.00     551    54.3
 335   12:30   60.9    19    2.4    28      5.2   938.9    0.00     543    55.0
 335   12:40   61.7    17    2.6    37      5.6   938.7    0.00     531    55.7
 335   12:50   61.8    17    3.1    33      6.1   938.6    0.00     519    56.4
 335   13:00   61.8    17    3.4    33      7.2   938.5    0.00     504    57.1
 335   13:10   63.0    16    2.6    30      5.1   938.4    0.00     488    57.7
 335   13:20   62.8    16    3.0    37      6.1   938.4    0.00     470    58.3
 335   13:30   63.2    16    2.6    33      5.4   938.3    0.00     443    58.9
 335   13:40   63.4    15    3.1    29      7.2   938.2    0.00     431    59.4
 335   13:50   63.4    15    2.5    42      5.6   938.0    0.00     411    59.9
 335   14:00   63.6    14    2.4    35      5.2   937.9    0.00     387    60.3
 335   14:10   63.9    14    2.7    29      5.3   937.7    0.00     364    60.7
 335   14:20   64.1    14    2.4    49      5.8   937.6    0.00     337    61.1
 335   14:30   64.0    14    3.0    42      6.8   937.5    0.00     309    61.4
 335   14:40   63.7    14    3.0    23      7.0   937.4    0.00     283    61.7
 335   14:50   64.0    14    2.0    36      5.0   937.3    0.00     255    62.0
 335   15:00   64.1    14    1.9    36      4.9   937.2    0.00     227    62.2
 335   15:10   64.3    14    1.7    26      3.7   937.1    0.00     199    62.3
 335   15:20   63.9    14    1.6    23      3.5   936.9    0.00     173    62.4
 335   15:30   64.0    14    1.4    16      2.5   936.9    0.00     144    62.5
 335   15:40   63.6    14    1.4    20      3.9   936.9    0.00     107    62.5
 335   15:50   63.2    14    0.7    37      2.2   936.7    0.00      71    62.5
 335   16:00   64.5    14    0.1    87      1.5   936.5    0.00      36    62.4
 335   16:10   61.1    16    0.4   332      0.8   936.5    0.00      15    62.3
 335   16:20   57.9    18    1.2   217      2.4   936.2    0.00      10    62.1
 335   16:30   56.2    18    0.4   251      1.8   936.1    0.00       5    61.8
 335   16:40   54.3    19    1.6   222      2.6   936.0    0.00       3    61.6
 335   16:50   53.6    18    1.5   204      2.6   936.0    0.00       0    61.3
 335   17:00   54.0    18    0.8   229      2.1   935.9    0.00       0    61.0
 335   17:10   55.2    18    1.2   301      3.7   935.9    0.00       0    60.7
 335   17:20   55.1    18    0.7   310      2.1   935.9    0.00       0    60.3
 335   17:30   55.2    17    1.2   296      3.5   936.0    0.00       0    59.9
 335   17:40   54.8    18    1.1   324      2.8   936.0    0.00       0    59.6
 335   17:50   54.0    18    1.3   288      2.3   936.2    0.00       0    59.3
 335   18:00   54.5    17    1.4   270      3.4   936.2    0.00       0    58.9
 335   18:10   55.0    17    1.5   276      3.7   936.0    0.00       0    58.6
 335   18:20   54.8    18    0.7   282      2.2   936.0    0.00       0    58.3
 335   18:30   53.5    18    2.5   200      4.2   936.1    0.00       0    57.9
 335   18:40   53.0    18    4.0   218      5.1   936.0    0.00       0    57.6
 335   18:50   52.5    18    3.7   238      4.7   936.0    0.00       0    57.3
 335   19:00   50.4    19    4.3   215      6.0   936.0    0.00       0    57.0
 335   19:10   50.9    18    3.7   210      4.7   936.0    0.00       0    56.7
 335   19:20   51.9    18    4.2   212      5.3   936.0    0.00       0    56.5
 335   19:30   51.2    18    3.8   213      4.6   936.0    0.00       0    56.2
 335   19:40   50.1    19    4.2   211      5.5   935.8    0.00       0    56.0
 335   19:50   50.0    19    3.4   204      4.8   935.6    0.00       0    55.7
 335   20:00   51.1    19    3.1   220      4.7   935.5    0.00       0    55.5
 335   20:10   51.7    18    3.9   196      6.0   935.4    0.00       0    55.3
 335   20:20   51.4    19    4.6   200      6.8   935.3    0.00       0    55.1
 335   20:30   51.6    19    3.6   207      4.9   935.3    0.00       0    54.9
 335   20:40   51.6    19    3.5   204      4.7   935.2    0.00       0    54.7
 335   20:50   51.2    19    3.1   221      4.1   935.1    0.00       0    54.5
 335   21:00   51.6    19    3.4   224      5.6   935.1    0.00       0    54.3
 335   21:10   50.8    20    1.0   203      3.7   935.1    0.00       0    54.1
 335   21:20   50.1    20    2.0   219      3.5   935.0    0.00       0    53.9
 335   21:30   49.2    21    3.4   223      4.5   934.7    0.00       0    53.7
 335   21:40   48.8    21    4.1   211      5.2   934.6    0.00       0    53.6
 335   21:50   48.5    21    4.2   203      6.0   934.7    0.00       0    53.4
 335   22:00   48.5    21    2.6   205      3.4   934.9    0.00       0    53.2
 335   22:10   48.2    21    1.4   219      3.2   935.0    0.00       0    53.0
 335   22:20   48.6    21    0.6   336      1.8   935.1    0.00       0    52.9
 335   22:30   48.6    23    0.6   230      2.3   935.1    0.00       0    52.7
 335   22:40   47.2    25    1.1   238      2.4   934.9    0.00       0    52.5
 335   22:50   46.6    27    1.4   266      2.4   934.8    0.00       0    52.3
 335   23:00   46.3    28    2.2   214      4.0   934.8    0.00       0    52.2
 335   23:10   45.6    29    2.6   207      3.8   934.7    0.00       0    52.0
 335   23:20   46.6    24    3.4   231      4.3   934.8    0.00       0    51.8
 335   23:30   46.5    24    3.9   226      5.8   934.9    0.00       0    51.6
 335   23:40   46.8    24    1.7   240      3.6   934.9    0.00       0    51.5
 335   23:50   46.1    24    0.6   220      2.0   934.9    0.00       0    51.3
 336    0:00   45.1    27    0.5   220      1.9   934.8    0.00       0    51.2
 336    0:10   45.8    29    0.8   256      1.9   934.8    0.00       0    51.0
 336    0:20   44.6    30    1.1   236      2.0   934.8    0.00       0    50.9
 336    0:30   44.7    30    1.9   248      3.6   934.7    0.00       0    50.7
 336    0:40   44.5    29    3.6   218      4.7   934.5    0.00       0    50.6
 336    0:50   44.3    28    3.4   212      4.8   934.4    0.00       0    50.4
 336    1:00   44.7    25    3.3   211      4.7   934.4    0.00       0    50.3
 336    1:10   45.8    24    4.2   218      5.6   934.3    0.00       0    50.2
 336    1:20   47.3    22    4.0   226      5.6   934.3    0.00       0    50.1
 336    1:30   46.4    23    2.1   228      3.8   934.3    0.00       0    49.9
 336    1:40   45.1    26    2.1   224      4.8   934.5    0.00       0    49.8
 336    1:50   43.5    28    3.1   224      4.1   934.6    0.00       0    49.7
 336    2:00   43.8    28    1.6   234      4.6   934.6    0.00       0    49.6
 336    2:10   43.3    29    1.7   244      3.7   934.6    0.00       0    49.5
 336    2:20   42.6    29    2.6   222      4.3   934.5    0.00       0    49.4
 336    2:30   42.4    29    3.7   211      5.3   934.4    0.00       0    49.3
 336    2:40   43.1    28    2.5   228      4.2   934.4    0.00       0    49.2
 336    2:50   43.9    26    1.2   226      3.3   934.5    0.00       0    49.0
 336    3:00   44.6    30    0.7     8      3.2   934.6    0.00       0    48.9
 336    3:10   44.3    34    0.5   268      3.1   934.7    0.00       0    48.8
 336    3:20   43.1    37    0.5   239      1.8   934.6    0.00       0    48.7
 336    3:30   42.9    39    0.8   235      2.6   934.7    0.00       0    48.5
 336    3:40   43.4    38    1.9   243      3.1   934.6    0.00       0    48.4
 336    3:50   44.1    36    1.1   216      2.2   934.6    0.00       0    48.3
 336    4:00   45.0    33    1.3   260      3.9   934.7    0.00       0    48.2
 336    4:10   46.6    25    2.4   298      5.3   934.6    0.00       0    48.1
 336    4:20   48.1    23    3.0   307      8.8   934.7    0.00       0    48.0
 336    4:30   47.8    24    2.4   334      4.1   935.0    0.00       0    47.9
 336    4:40   46.0    27    0.7   235      1.9   935.1    0.00       0    47.8
 336    4:50   44.7    29    1.1   219      2.6   935.1    0.00       0    47.7
 336    5:00   43.5    32    0.9   209      2.2   935.1    0.00       0    47.6
 336    5:10   43.1    33    1.2   222      2.4   935.1    0.00       0    47.6
 336    5:20   42.9    33    1.5   214      3.0   935.1    0.00       0    47.5
 336    5:30   42.6    33    2.2   198      3.1   935.1    0.00       0    47.4
 336    5:40   42.9    32    2.7   218      4.3   935.1    0.00       0    47.3
 336    5:50   42.5    32    0.6   342      2.6   935.3    0.00       0    47.2
 336    6:00   43.1    32    0.1   101      1.2   935.3    0.00       0    47.1
 336    6:10   43.0    32    1.1   223      2.7   935.4    0.00       0    47.0
 336    6:20   41.3    35    1.3   217      2.8   935.3    0.00       0    46.9
 336    6:30   41.6    35    1.2   247      2.9   935.4    0.00       3    46.8
 336    6:40   40.8    36    2.5   224      4.2   935.6    0.00       7    46.7
 336    6:50   40.7    36    1.3   213      2.9   935.7    0.00      12    46.5
 336    7:00   40.4    38    2.4   224      4.1   935.8    0.00      19    46.4
 336    7:10   41.4    37    2.2   211      5.7   935.7    0.00      51    46.3
 336    7:20   43.5    34    2.0   125      4.3   935.8    0.00      24    46.2
 336    7:30   46.0    34    1.7     6      2.9   936.2    0.00      27    46.2
 336    7:40   48.6    31    0.9    43      2.1   936.5    0.00     131    46.1
 336    7:50   50.4    28    1.0    16      3.9   936.5    0.00      81    46.1
 336    8:00   50.2    28    3.0    24      6.1   936.7    0.00      31    46.1
 336    8:10   48.9    30    3.0    13      6.5   937.0    0.00      71    46.1
 336    8:20   49.7    30    2.5    42      6.4   937.2    0.00     258    46.1
 336    8:30   50.6    27    2.5    45      5.6   937.2    0.00     113    46.2
 336    8:40   51.4    25    2.3    59      4.8   937.4    0.00     253    46.3
 336    8:50   52.6    24    2.0    40      5.0   937.6    0.00     116    46.5
 336    9:00   53.2    22    2.9    22      5.9   937.7    0.00     388    46.6
 336    9:10   53.9    23    2.6    25      5.4   937.9    0.00     411    46.7
 336    9:20   53.7    23    4.0    23      7.5   938.2    0.00     432    46.9
 336    9:30   54.2    24    3.1    26      7.0   938.3    0.00     452    47.1
 336    9:40   55.0    21    4.9     5     10.2   938.4    0.00     471    47.3
 336    9:50   55.7    20    4.7    13      9.2   938.6    0.00     488    47.5
 336   10:00   55.8    20    4.5    14      8.1   938.7    0.00     504    47.7
 336   10:10   56.3    19    4.2    14      8.5   938.7    0.00     518    47.9
 336   10:20   56.6    19    4.2    26      8.7   938.6    0.00     530    48.1
 336   10:30   57.6    19    3.1    33      7.2   938.6    0.00     541    48.4

Return to Boulder City, Nevada graphs page.


Western Regional Climate Center,wrcc@dri.edu